La Motte, Iowa
Current Conditions -  °F | °C
As of 11:53 AM on Saturday 25 Oct 2014 (Local Time) from KDBQ Reporting Station
Clear Clear  
Wind Chill: 63°   Ceiling: Unl
Heat Index: 63°   Visibility: 10mi
Dew Point: 37°   Wind: 15mph
Humidity: 38%   Direction: 340°NNW
Pressure: 30.04"   Gusts: NA
Location:  42.3°N, 90.62°W
Report Text: KDBQ 251653Z 34013KT 10SM CLR 17/03 A3004 RMK AO2 SLP172 T01720028
Loading
Personal Weather Stations






























Interactive Weather Map
Tropical Storm Tracking
New forecast layout! Learn more

10-Day Weather Forecast

Advertisements
Track Severe Weather on mobile